Time;durP1;ratioP1;P1;durP2;ratioP2;P2;SDS_P1;SDS_P2;PMS_P1;PMS_P2;Temp;Humidity;BMP_temperature;BMP_pressure;BME280_temperature;BME280_humidity;BME280_pressure;Samples;Min_cycle;Max_cycle;Signal;HPM_P1;HPM_P2
2024/01/26 05:31:01;;;;;;;0.00;0.00;;;13.20;91.60;;;;;;5690708;23;20082;-85
2024/01/26 05:33:26;;;;;;;0.10;0.10;;;13.30;91.60;;;;;;4993463;28;20042;-85
2024/01/26 05:35:52;;;;;;;0.10;0.10;;;13.30;91.60;;;;;;4994968;28;20072;-85
2024/01/26 05:38:18;;;;;;;0.10;0.10;;;13.20;91.60;;;;;;4997713;28;20030;-85
2024/01/26 05:40:43;;;;;;;0.10;0.10;;;13.30;91.60;;;;;;5000006;28;20029;-85
2024/01/26 05:43:09;;;;;;;0.00;0.00;;;13.30;91.50;;;;;;5000346;28;20037;-85
2024/01/26 05:45:34;;;;;;;0.10;0.10;;;13.30;91.60;;;;;;5000115;28;20033;-85
2024/01/26 05:48:00;;;;;;;0.10;0.10;;;13.30;91.50;;;;;;4999414;28;20035;-85
2024/01/26 05:50:26;;;;;;;0.00;0.00;;;13.20;91.70;;;;;;5000548;28;20054;-86
2024/01/26 05:52:52;;;;;;;0.10;0.10;;;13.20;91.60;;;;;;4995224;28;20045;-80
2024/01/26 05:55:20;;;;;;;0.10;0.10;;;13.30;91.60;;;;;;4981761;28;20027;-87
2024/01/26 05:57:46;;;;;;;0.10;0.10;;;13.20;91.60;;;;;;4983980;28;20038;-87
2024/01/26 06:00:12;;;;;;;0.10;0.10;;;13.30;91.60;;;;;;4979478;28;20034;-82
2024/01/26 06:02:38;;;;;;;0.00;0.00;;;13.30;91.60;;;;;;4996392;28;20049;-84
2024/01/26 06:05:04;;;;;;;0.10;0.10;;;13.30;91.50;;;;;;4998330;28;20030;-85
2024/01/26 06:07:30;;;;;;;0.00;0.00;;;13.30;91.50;;;;;;4995314;28;20054;-85
2024/01/26 06:09:55;;;;;;;0.10;0.10;;;13.40;91.50;;;;;;4980721;28;20506;-86
2024/01/26 06:12:21;;;;;;;0.10;0.10;;;13.40;91.40;;;;;;4980087;28;20035;-83
2024/01/26 06:14:47;;;;;;;0.08;0.08;;;13.40;91.40;;;;;;5000214;28;20031;-86
2024/01/26 06:17:12;;;;;;;0.10;0.10;;;13.40;91.40;;;;;;4999655;28;20093;-80
2024/01/26 06:19:38;;;;;;;0.10;0.10;;;13.40;91.40;;;;;;4999142;28;20038;-78
2024/01/26 06:22:04;;;;;;;0.00;0.00;;;13.40;91.40;;;;;;4999448;28;20041;-81
2024/01/26 06:24:29;;;;;;;0.00;0.00;;;13.50;91.40;;;;;;4989439;28;20027;-77
2024/01/26 06:26:55;;;;;;;0.00;0.00;;;13.40;91.60;;;;;;4999818;28;20026;-82
2024/01/26 06:29:21;;;;;;;0.10;0.10;;;13.40;91.60;;;;;;4989277;28;20529;-76
2024/01/26 06:31:46;;;;;;;0.10;0.10;;;13.50;91.60;;;;;;4997699;28;20122;-79
2024/01/26 06:34:12;;;;;;;0.08;0.08;;;13.50;91.40;;;;;;4998059;28;20035;-78
2024/01/26 06:36:37;;;;;;;0.10;0.10;;;13.50;91.40;;;;;;4998658;28;20030;-78
2024/01/26 06:39:03;;;;;;;0.00;0.00;;;13.50;91.40;;;;;;4998869;28;20259;-78
2024/01/26 06:41:29;;;;;;;0.10;0.10;;;13.50;91.30;;;;;;4999164;28;20390;-78
2024/01/26 06:43:54;;;;;;;0.10;0.10;;;13.50;91.30;;;;;;4999224;28;20030;-78
2024/01/26 06:46:23;;;;;;;0.10;0.10;;;13.50;91.30;;;;;;4998496;28;20026;-78
2024/01/26 06:48:49;;;;;;;0.10;0.10;;;13.50;91.40;;;;;;4998452;28;20026;-78
2024/01/26 06:51:15;;;;;;;0.00;0.00;;;13.50;91.20;;;;;;4998769;28;20031;-78
2024/01/26 06:53:41;;;;;;;0.00;0.00;;;13.50;91.30;;;;;;4999500;28;20101;-78
2024/01/26 06:56:07;;;;;;;0.00;0.00;;;13.50;91.20;;;;;;4998764;28;20057;-77
2024/01/26 06:58:33;;;;;;;0.10;0.10;;;13.50;91.20;;;;;;4998871;28;20036;-81
2024/01/26 07:01:00;;;;;;;0.10;0.10;;;13.50;91.20;;;;;;4998775;28;20061;-81
2024/01/26 07:03:26;;;;;;;0.00;0.00;;;13.50;91.20;;;;;;4983056;28;20015;-79
2024/01/26 07:05:52;;;;;;;0.10;0.10;;;13.50;91.10;;;;;;4973186;28;20026;-79
2024/01/26 07:08:17;;;;;;;0.00;0.00;;;13.50;91.00;;;;;;4996283;28;20034;-78
2024/01/26 07:10:43;;;;;;;0.10;0.10;;;13.50;91.00;;;;;;4995885;28;20871;-78
2024/01/26 07:13:09;;;;;;;0.05;0.05;;;13.60;90.90;;;;;;4995754;28;20058;-79
2024/01/26 07:15:35;;;;;;;0.10;0.10;;;13.40;89.90;;;;;;4998022;28;20029;-79
2024/01/26 07:18:01;;;;;;;0.00;0.00;;;13.20;89.20;;;;;;4993107;28;20101;-79
2024/01/26 07:20:27;;;;;;;0.10;0.10;;;13.00;88.60;;;;;;4979069;28;20038;-78
2024/01/26 07:22:52;;;;;;;0.10;0.10;;;12.70;86.90;;;;;;4993702;28;20030;-79
2024/01/26 07:25:21;;;;;;;0.10;0.10;;;12.60;87.40;;;;;;4997886;28;20522;-79
2024/01/26 07:27:47;;;;;;;0.10;0.10;;;12.30;85.80;;;;;;4993223;28;20094;-78
2024/01/26 07:30:14;;;;;;;0.10;0.10;;;12.10;85.00;;;;;;4991924;28;20478;-79
2024/01/26 07:32:43;;;;;;;0.10;0.10;;;12.10;86.60;;;;;;4996575;28;20036;-78
2024/01/26 07:35:09;;;;;;;0.10;0.10;;;12.00;85.00;;;;;;4996546;28;20030;-78
2024/01/26 07:37:35;;;;;;;0.10;0.10;;;11.90;85.60;;;;;;4997641;28;20050;-78
2024/01/26 07:40:04;;;;;;;0.10;0.10;;;12.00;86.80;;;;;;4994679;28;20081;-78
2024/01/26 07:42:30;;;;;;;0.10;0.10;;;12.00;86.30;;;;;;4978249;28;20027;-78
2024/01/26 07:44:56;;;;;;;0.10;0.10;;;11.90;86.10;;;;;;4991362;28;20030;-78
2024/01/26 07:47:22;;;;;;;0.10;0.10;;;12.00;86.20;;;;;;4997158;28;20034;-78
2024/01/26 07:49:48;;;;;;;0.00;0.00;;;12.00;86.20;;;;;;4997751;28;20029;-78
2024/01/26 07:52:14;;;;;;;0.10;0.10;;;12.10;86.60;;;;;;4997369;28;20526;-78
2024/01/26 07:54:40;;;;;;;0.05;0.05;;;12.00;85.70;;;;;;4996858;28;20030;-78
2024/01/26 07:57:06;;;;;;;0.10;0.10;;;12.00;86.30;;;;;;4997265;28;20037;-78
2024/01/26 07:59:31;;;;;;;0.10;0.10;;;12.10;86.10;;;;;;4997457;28;20026;-78
2024/01/26 08:01:57;;;;;;;0.10;0.10;;;12.10;86.00;;;;;;4995468;28;20474;-78
2024/01/26 08:04:23;;;;;;;0.10;0.10;;;12.20;85.80;;;;;;4995561;28;20034;-79
2024/01/26 08:06:49;;;;;;;0.10;0.10;;;12.10;85.90;;;;;;4996392;28;20062;-78
2024/01/26 08:09:14;;;;;;;0.10;0.10;;;12.10;85.30;;;;;;4991838;28;20031;-78
2024/01/26 08:11:40;;;;;;;0.10;0.10;;;12.20;85.70;;;;;;4995268;28;20670;-78
2024/01/26 08:14:06;;;;;;;0.10;0.10;;;12.20;85.40;;;;;;4997641;28;20030;-78
2024/01/26 08:16:32;;;;;;;0.10;0.10;;;12.20;85.40;;;;;;4996243;28;20073;-78
2024/01/26 08:18:58;;;;;;;0.10;0.10;;;12.30;85.30;;;;;;4992263;28;20037;-78
2024/01/26 08:21:24;;;;;;;0.10;0.10;;;12.30;85.40;;;;;;4996066;28;20026;-78
2024/01/26 08:23:49;;;;;;;0.10;0.10;;;12.40;84.60;;;;;;4996964;28;20053;-78
2024/01/26 08:26:15;;;;;;;0.10;0.10;;;12.30;84.70;;;;;;4995276;28;20058;-78
2024/01/26 08:28:41;;;;;;;0.10;0.10;;;12.30;84.10;;;;;;4995997;28;20078;-78
2024/01/26 08:31:07;;;;;;;0.20;0.20;;;12.30;84.60;;;;;;4995113;28;20076;-78
2024/01/26 08:33:32;;;;;;;0.10;0.10;;;12.30;84.50;;;;;;4995954;28;20022;-78
2024/01/26 08:35:58;;;;;;;0.10;0.10;;;12.20;83.40;;;;;;4995012;28;20065;-78
2024/01/26 08:38:24;;;;;;;0.10;0.10;;;12.30;84.30;;;;;;4995125;28;20034;-78
2024/01/26 08:40:50;;;;;;;0.10;0.10;;;12.30;83.50;;;;;;4990068;28;20462;-78
2024/01/26 08:43:15;;;;;;;0.10;0.10;;;12.30;83.60;;;;;;4996033;28;20018;-77
2024/01/26 08:45:41;;;;;;;0.10;0.10;;;12.20;83.50;;;;;;4993575;28;20026;-78
2024/01/26 08:48:07;;;;;;;0.10;0.10;;;12.30;83.50;;;;;;4989584;28;20023;-78
2024/01/26 08:50:33;;;;;;;0.10;0.10;;;12.30;83.30;;;;;;4992137;28;20030;-78
2024/01/26 08:52:58;;;;;;;0.10;0.10;;;12.30;83.20;;;;;;4995570;28;20032;-79
2024/01/26 08:55:24;;;;;;;0.10;0.10;;;12.30;83.60;;;;;;4989972;28;20066;-77
2024/01/26 08:57:50;;;;;;;0.10;0.10;;;12.30;82.40;;;;;;4991298;28;20022;-79
2024/01/26 09:00:19;;;;;;;0.10;0.10;;;12.40;83.20;;;;;;4995239;28;20036;-84
2024/01/26 09:02:45;;;;;;;0.13;0.13;;;12.30;83.10;;;;;;4987740;28;20030;-77
2024/01/26 09:05:11;;;;;;;0.10;0.10;;;12.30;82.20;;;;;;4991663;28;20030;-77
2024/01/26 09:07:37;;;;;;;0.10;0.10;;;12.30;82.10;;;;;;4985956;28;20677;-77
2024/01/26 09:10:03;;;;;;;0.10;0.10;;;12.30;81.90;;;;;;4976982;28;20113;-78
2024/01/26 09:12:29;;;;;;;0.10;0.10;;;12.30;82.20;;;;;;4987629;28;20027;-77
2024/01/26 09:14:55;;;;;;;0.10;0.10;;;12.40;82.40;;;;;;4981302;28;20096;-78
2024/01/26 09:17:20;;;;;;;0.10;0.10;;;12.30;82.40;;;;;;4990697;28;20034;-78
2024/01/26 09:19:46;;;;;;;0.10;0.10;;;12.30;82.20;;;;;;4987894;28;20106;-78
2024/01/26 09:22:12;;;;;;;0.10;0.10;;;12.30;81.60;;;;;;4989854;28;20030;-78
2024/01/26 09:24:37;;;;;;;0.20;0.20;;;12.40;82.10;;;;;;4991066;28;20053;-77
2024/01/26 09:27:03;;;;;;;0.10;0.10;;;12.30;81.80;;;;;;4990156;28;20114;-77
2024/01/26 09:29:29;;;;;;;0.10;0.10;;;12.30;82.00;;;;;;4990785;28;20022;-77
2024/01/26 09:31:56;;;;;;;0.10;0.10;;;12.30;82.30;;;;;;4994764;28;20038;-77
2024/01/26 09:34:22;;;;;;;0.10;0.10;;;12.30;82.50;;;;;;4993512;28;20030;-77
2024/01/26 09:36:48;;;;;;;0.10;0.10;;;12.40;82.20;;;;;;4991883;28;20037;-77
2024/01/26 09:39:13;;;;;;;0.10;0.10;;;12.50;81.70;;;;;;4990215;28;20049;-77
2024/01/26 09:41:39;;;;;;;0.10;0.10;;;12.70;81.60;;;;;;4990987;28;20469;-77
2024/01/26 09:44:07;;;;;;;0.10;0.10;;;12.70;81.50;;;;;;4981710;28;20449;-77
2024/01/26 09:46:33;;;;;;;0.10;0.10;;;12.70;81.20;;;;;;4992462;28;20022;-77
2024/01/26 09:49:00;;;;;;;0.15;0.15;;;12.80;81.10;;;;;;4984066;28;20089;-77
2024/01/26 09:51:27;;;;;;;0.17;0.17;;;12.80;81.40;;;;;;4992176;28;20030;-77
2024/01/26 09:54:01;;;;;;;0.10;0.10;;;12.80;81.60;;;;;;4995582;28;20500;-77
2024/01/26 09:56:29;;;;;;;0.10;0.10;;;12.90;81.00;;;;;;4992777;28;20030;-77
2024/01/26 09:58:55;;;;;;;0.13;0.13;;;12.90;80.40;;;;;;4985746;28;20125;-77
2024/01/26 10:01:22;;;;;;;0.10;0.10;;;13.00;80.30;;;;;;4989582;28;20393;-77
2024/01/26 10:03:50;;;;;;;0.20;0.20;;;13.10;80.40;;;;;;4994896;28;20022;-77
2024/01/26 10:06:16;;;;;;;0.20;0.20;;;13.20;80.00;;;;;;4994394;28;20038;-77
2024/01/26 10:08:42;;;;;;;0.10;0.10;;;13.20;79.10;;;;;;4990992;28;20470;-77
2024/01/26 10:11:08;;;;;;;0.20;0.20;;;13.20;79.50;;;;;;4988775;28;20572;-77
2024/01/26 10:13:34;;;;;;;0.20;0.20;;;13.10;79.10;;;;;;4989997;28;20453;-78
2024/01/26 10:16:12;;;;;;;0.20;0.20;;;13.20;79.20;;;;;;4992964;28;20045;-78
2024/01/26 10:18:39;;;;;;;0.20;0.20;;;13.50;79.30;;;;;;4985952;28;20070;-77
2024/01/26 10:21:04;;;;;;;0.20;0.20;;;13.60;78.00;;;;;;4993248;28;20117;-78
2024/01/26 10:23:30;;;;;;;0.20;0.20;;;13.70;77.80;;;;;;4992847;28;20050;-78
2024/01/26 10:25:56;;;;;;;0.20;0.20;;;13.80;78.20;;;;;;4996771;28;20022;-78
2024/01/26 10:28:21;;;;;;;0.10;0.10;;;13.90;78.30;;;;;;4997024;28;20105;-77
2024/01/26 10:30:47;;;;;;;0.20;0.20;;;13.80;76.00;;;;;;4996628;28;20121;-78
2024/01/26 10:33:13;;;;;;;0.10;0.10;;;13.80;77.10;;;;;;4996463;28;20045;-77
2024/01/26 10:35:47;;;;;;;0.20;0.20;;;13.80;76.00;;;;;;4991576;28;20096;-77
2024/01/26 10:38:14;;;;;;;0.20;0.20;;;13.70;75.80;;;;;;4997871;28;20109;-77
2024/01/26 10:40:44;;;;;;;0.20;0.20;;;13.40;73.90;;;;;;4995360;28;20038;-78
2024/01/26 10:43:15;;;;;;;0.10;0.10;;;13.40;76.40;;;;;;4995423;28;20074;-78
2024/01/26 10:45:41;;;;;;;0.10;0.10;;;13.20;74.60;;;;;;4995593;28;20043;-78
2024/01/26 10:48:12;;;;;;;0.20;0.20;;;13.30;74.90;;;;;;4995887;28;20058;-77
2024/01/26 10:50:39;;;;;;;0.10;0.10;;;13.20;75.20;;;;;;4995715;28;20526;-77
2024/01/26 10:53:05;;;;;;;0.10;0.10;;;13.10;74.60;;;;;;4997726;28;20054;-78
2024/01/26 10:55:31;;;;;;;0.20;0.20;;;13.10;75.10;;;;;;4996396;28;20030;-78
2024/01/26 10:57:58;;;;;;;0.10;0.10;;;13.00;75.30;;;;;;4996121;28;20029;-78
2024/01/26 11:00:24;;;;;;;0.20;0.20;;;13.00;75.10;;;;;;4990047;28;20034;-78
2024/01/26 11:02:50;;;;;;;0.13;0.13;;;13.00;74.80;;;;;;4992618;28;20022;-77
2024/01/26 11:05:17;;;;;;;0.10;0.10;;;13.00;75.30;;;;;;4988324;28;20049;-79
2024/01/26 11:07:44;;;;;;;0.13;0.13;;;12.90;74.00;;;;;;4994276;28;20022;-75
2024/01/26 11:10:15;;;;;;;0.20;0.20;;;13.10;74.30;;;;;;4997490;28;20030;-76
2024/01/26 11:12:40;;;;;;;0.17;0.17;;;13.10;72.50;;;;;;4997154;28;20018;-76
2024/01/26 11:15:08;;;;;;;0.20;0.20;;;13.20;72.70;;;;;;4991774;28;20033;-75
2024/01/26 11:17:44;;;;;;;0.10;0.10;;;13.30;72.00;;;;;;4994887;28;20026;-76
2024/01/26 11:20:19;;;;;;;0.20;0.20;;;13.40;72.80;;;;;;4999652;28;20022;-79
2024/01/26 11:22:45;;;;;;;0.10;0.10;;;13.30;72.10;;;;;;4998024;28;20022;-75
2024/01/26 11:25:24;;;;;;;0.10;0.10;;;13.10;71.30;;;;;;4996806;28;20112;-76
2024/01/26 11:27:59;;;;;;;0.20;0.20;;;13.20;72.20;;;;;;4993423;28;20162;-77
2024/01/26 11:30:26;;;;;;;0.20;0.20;;;13.40;72.60;;;;;;4993749;28;20509;-76
2024/01/26 11:32:52;;;;;;;0.13;0.13;;;13.60;70.70;;;;;;4998140;28;20034;-78
2024/01/26 11:35:19;;;;;;;0.10;0.10;;;13.60;70.90;;;;;;4982673;28;20402;-76
2024/01/26 11:37:45;;;;;;;0.10;0.10;;;13.70;70.00;;;;;;4979412;28;20102;-76
2024/01/26 11:40:11;;;;;;;0.10;0.10;;;13.50;69.60;;;;;;4983828;28;20104;-78
2024/01/26 11:42:37;;;;;;;0.10;0.10;;;13.50;70.40;;;;;;4997497;28;20084;-80
2024/01/26 11:45:13;;;;;;;0.10;0.10;;;13.20;69.50;;;;;;4997932;28;20026;-76
2024/01/26 11:47:40;;;;;;;0.10;0.10;;;13.20;69.60;;;;;;4997462;28;20030;-80
2024/01/26 11:50:10;;;;;;;0.10;0.10;;;13.30;70.80;;;;;;4993126;28;20470;-84
2024/01/26 11:52:38;;;;;;;0.10;0.10;;;13.20;68.40;;;;;;4993070;28;20086;-75
2024/01/26 11:55:05;;;;;;;0.10;0.10;;;13.20;68.70;;;;;;4992857;28;20522;-76
2024/01/26 11:57:35;;;;;;;0.17;0.17;;;13.20;69.10;;;;;;4994076;28;20026;-76
2024/01/26 12:00:10;;;;;;;0.10;0.10;;;13.10;68.30;;;;;;4995010;28;20033;-76
2024/01/26 12:02:36;;;;;;;0.10;0.10;;;13.10;67.80;;;;;;4991196;28;20015;-76
2024/01/26 12:05:02;;;;;;;0.10;0.10;;;13.10;67.70;;;;;;4991469;28;20067;-76
2024/01/26 12:07:28;;;;;;;0.10;0.10;;;13.10;68.00;;;;;;4983824;28;20117;-77
2024/01/26 12:09:53;;;;;;;0.10;0.10;;;13.20;68.70;;;;;;4995831;28;20018;-76
2024/01/26 12:12:19;;;;;;;0.10;0.10;;;13.20;68.70;;;;;;4995708;28;20088;-76
2024/01/26 12:14:45;;;;;;;0.10;0.10;;;13.20;68.80;;;;;;4993430;28;20030;-76
2024/01/26 12:17:11;;;;;;;0.10;0.10;;;12.80;66.40;;;;;;4988128;28;20041;-76
2024/01/26 12:19:40;;;;;;;0.10;0.10;;;12.90;67.60;;;;;;4995234;28;20022;-76
2024/01/26 12:22:09;;;;;;;0.10;0.10;;;13.00;67.70;;;;;;4995762;28;20018;-76
2024/01/26 12:24:35;;;;;;;0.10;0.10;;;13.10;67.60;;;;;;4993347;28;20026;-76
2024/01/26 12:27:02;;;;;;;0.10;0.10;;;13.20;67.70;;;;;;4993026;28;20069;-76
2024/01/26 12:29:29;;;;;;;0.10;0.10;;;13.20;67.60;;;;;;4995915;28;20367;-77
2024/01/26 12:32:04;;;;;;;0.10;0.10;;;13.30;66.60;;;;;;4992670;28;20104;-76
2024/01/26 12:34:31;;;;;;;0.10;0.10;;;13.20;65.90;;;;;;4995305;28;20041;-76
2024/01/26 12:37:15;;;;;;;0.10;0.10;;;13.30;65.40;;;;;;4993016;28;20520;-76
2024/01/26 12:39:41;;;;;;;0.10;0.10;;;13.30;65.10;;;;;;4989704;28;20031;-76
2024/01/26 12:42:06;;;;;;;0.10;0.10;;;13.30;64.30;;;;;;4994806;28;20029;-76
2024/01/26 12:44:33;;;;;;;0.10;0.10;;;13.10;64.90;;;;;;4994761;28;20049;-76
2024/01/26 12:47:00;;;;;;;0.10;0.10;;;13.00;64.60;;;;;;4994327;28;20112;-77
2024/01/26 12:49:26;;;;;;;0.10;0.10;;;12.90;65.30;;;;;;4996046;28;20098;-76
2024/01/26 12:51:53;;;;;;;0.10;0.10;;;12.90;64.60;;;;;;4959229;28;20863;-76
2024/01/26 12:54:19;;;;;;;0.10;0.10;;;12.90;65.90;;;;;;4957921;28;20029;-76
2024/01/26 12:56:45;;;;;;;0.10;0.10;;;12.80;65.10;;;;;;4991311;28;20058;-76
2024/01/26 12:59:12;;;;;;;0.10;0.10;;;12.90;66.20;;;;;;4992653;28;20037;-76
2024/01/26 13:01:39;;;;;;;0.10;0.10;;;12.90;64.90;;;;;;4990509;28;20077;-76
2024/01/26 13:04:07;;;;;;;0.10;0.10;;;13.00;64.60;;;;;;4995194;28;20355;-76
2024/01/26 13:06:34;;;;;;;0.10;0.10;;;13.00;64.20;;;;;;4993166;28;20029;-76
2024/01/26 13:08:59;;;;;;;0.10;0.10;;;13.00;62.70;;;;;;4992107;28;20109;-76
2024/01/26 13:11:25;;;;;;;0.10;0.10;;;13.10;63.90;;;;;;4990762;28;20169;-76
2024/01/26 13:13:51;;;;;;;0.10;0.10;;;13.30;63.40;;;;;;4993676;28;20038;-75
2024/01/26 13:16:17;;;;;;;0.10;0.10;;;13.40;63.40;;;;;;4995027;28;20077;-76
2024/01/26 13:18:45;;;;;;;0.10;0.10;;;13.50;63.30;;;;;;4994330;28;20030;-76
2024/01/26 13:21:14;;;;;;;0.10;0.10;;;13.40;62.30;;;;;;4993735;28;20033;-76
2024/01/26 13:23:40;;;;;;;0.10;0.10;;;13.40;63.10;;;;;;4990510;28;20022;-76
2024/01/26 13:26:06;;;;;;;0.10;0.10;;;13.40;63.10;;;;;;4992727;28;20030;-76
2024/01/26 13:28:31;;;;;;;0.10;0.10;;;13.40;62.60;;;;;;4988795;28;20026;-76
2024/01/26 13:30:57;;;;;;;0.10;0.10;;;13.40;61.70;;;;;;4992227;28;20506;-75
2024/01/26 13:33:29;;;;;;;0.10;0.10;;;13.50;62.00;;;;;;4992680;28;20042;-76
2024/01/26 13:35:54;;;;;;;0.10;0.10;;;13.60;61.80;;;;;;4991747;28;20038;-75
2024/01/26 13:38:20;;;;;;;0.10;0.10;;;13.80;62.00;;;;;;4990858;28;20524;-76
2024/01/26 13:40:50;;;;;;;0.10;0.10;;;13.70;61.50;;;;;;4993156;28;20405;-76
2024/01/26 13:43:17;;;;;;;0.10;0.10;;;13.60;60.90;;;;;;4995560;28;20028;-75
2024/01/26 13:45:42;;;;;;;0.10;0.10;;;13.50;61.40;;;;;;4990151;28;20185;-75
2024/01/26 13:48:08;;;;;;;0.10;0.10;;;13.50;61.90;;;;;;4995271;28;20069;-75
2024/01/26 13:50:34;;;;;;;0.10;0.10;;;13.30;61.40;;;;;;4993580;28;20034;-76
2024/01/26 13:53:02;;;;;;;0.10;0.10;;;13.30;60.40;;;;;;4988812;28;20023;-75
2024/01/26 13:55:29;;;;;;;0.10;0.10;;;13.30;61.40;;;;;;4992829;28;20025;-75
2024/01/26 13:57:55;;;;;;;0.10;0.10;;;13.20;61.00;;;;;;4995077;28;20019;-76
2024/01/26 14:00:22;;;;;;;0.10;0.10;;;13.20;62.00;;;;;;4990422;28;20508;-76
2024/01/26 14:02:48;;;;;;;0.10;0.10;;;13.20;62.50;;;;;;4986998;28;20141;-76
2024/01/26 14:05:14;;;;;;;0.10;0.10;;;13.20;61.50;;;;;;4996069;28;20018;-76
2024/01/26 14:07:40;;;;;;;0.10;0.10;;;13.20;63.00;;;;;;4997286;28;20027;-75
2024/01/26 14:10:06;;;;;;;0.10;0.10;;;13.00;63.00;;;;;;4994097;28;20031;-76
2024/01/26 14:12:32;;;;;;;0.10;0.10;;;13.00;63.10;;;;;;4997126;28;20054;-76
2024/01/26 14:14:59;;;;;;;0.10;0.10;;;12.90;64.50;;;;;;4998174;28;20410;-78
2024/01/26 14:17:25;;;;;;;0.10;0.10;;;12.80;64.20;;;;;;4991932;28;20113;-76
2024/01/26 14:19:51;;;;;;;0.10;0.10;;;12.70;64.40;;;;;;4988912;28;20169;-78
2024/01/26 14:22:16;;;;;;;0.10;0.10;;;12.50;64.80;;;;;;4997606;28;20026;-76
2024/01/26 14:24:43;;;;;;;0.10;0.10;;;12.50;65.60;;;;;;4995557;28;20128;-76
2024/01/26 14:27:12;;;;;;;0.10;0.10;;;12.50;65.80;;;;;;4991809;28;20022;-76
2024/01/26 14:29:38;;;;;;;0.10;0.10;;;12.40;65.90;;;;;;4995301;28;20563;-75
2024/01/26 14:32:05;;;;;;;0.10;0.10;;;12.40;65.70;;;;;;4997208;28;20042;-76
2024/01/26 14:34:30;;;;;;;0.10;0.10;;;12.30;66.60;;;;;;4998595;28;20089;-76
2024/01/26 14:37:00;;;;;;;0.10;0.10;;;12.40;66.40;;;;;;4995280;28;20026;-75
2024/01/26 14:39:26;;;;;;;0.10;0.10;;;12.40;66.20;;;;;;4994989;28;20494;-76
2024/01/26 14:41:55;;;;;;;0.10;0.10;;;12.50;66.30;;;;;;4990214;28;20494;-78
2024/01/26 14:44:22;;;;;;;0.10;0.10;;;12.50;65.60;;;;;;4995098;28;20026;-76
2024/01/26 14:46:49;;;;;;;0.10;0.10;;;12.50;65.70;;;;;;4998581;28;20460;-77
2024/01/26 14:49:15;;;;;;;0.10;0.10;;;12.60;65.80;;;;;;4992701;28;20049;-76
2024/01/26 14:51:42;;;;;;;0.10;0.10;;;12.70;65.50;;;;;;4995756;28;20121;-77
2024/01/26 14:54:07;;;;;;;0.10;0.10;;;12.70;65.70;;;;;;4989219;28;20060;-77
2024/01/26 14:56:33;;;;;;;0.10;0.10;;;12.70;65.60;;;;;;4997416;28;20090;-76
2024/01/26 14:58:59;;;;;;;0.10;0.10;;;12.70;64.10;;;;;;4991761;28;20030;-78
2024/01/26 15:01:25;;;;;;;0.10;0.10;;;12.60;64.50;;;;;;4992652;28;20462;-76
2024/01/26 15:03:51;;;;;;;0.10;0.10;;;12.60;64.30;;;;;;4996956;28;20026;-76
2024/01/26 15:06:19;;;;;;;0.10;0.10;;;12.50;64.00;;;;;;4994352;28;20485;-77
2024/01/26 15:08:45;;;;;;;0.10;0.10;;;12.40;64.20;;;;;;4997614;28;20485;-76
2024/01/26 15:11:11;;;;;;;0.10;0.10;;;12.40;64.10;;;;;;4993903;28;20371;-76
2024/01/26 15:13:36;;;;;;;0.10;0.10;;;12.40;63.70;;;;;;4994731;28;20034;-81
2024/01/26 15:16:02;;;;;;;0.10;0.10;;;12.30;64.30;;;;;;4986484;28;20026;-76
2024/01/26 15:18:28;;;;;;;0.10;0.10;;;12.40;63.60;;;;;;4993625;28;20035;-77
2024/01/26 15:20:54;;;;;;;0.10;0.10;;;12.30;64.00;;;;;;4994507;28;20029;-76
2024/01/26 15:23:19;;;;;;;0.10;0.10;;;12.30;64.70;;;;;;4990141;28;20457;-76
2024/01/26 15:25:48;;;;;;;0.10;0.10;;;12.20;63.70;;;;;;4988391;28;20033;-76
2024/01/26 15:28:14;;;;;;;0.10;0.10;;;12.10;63.30;;;;;;4991044;28;20125;-78
2024/01/26 15:30:41;;;;;;;0.10;0.10;;;12.00;64.10;;;;;;4997637;28;20090;-76
2024/01/26 15:33:07;;;;;;;0.10;0.10;;;11.90;64.40;;;;;;4992186;28;20030;-76
2024/01/26 15:35:34;;;;;;;0.10;0.10;;;12.00;65.40;;;;;;4991991;28;20029;-76
2024/01/26 15:37:59;;;;;;;0.10;0.10;;;11.90;64.90;;;;;;4997620;28;20046;-76
2024/01/26 15:40:25;;;;;;;0.10;0.10;;;12.00;65.10;;;;;;4997156;28;20018;-76
2024/01/26 15:42:51;;;;;;;0.10;0.10;;;11.90;64.70;;;;;;4985101;28;20022;-76
2024/01/26 15:45:16;;;;;;;0.10;0.10;;;12.00;64.80;;;;;;4993117;28;20026;-78
2024/01/26 15:47:42;;;;;;;0.10;0.10;;;12.00;65.10;;;;;;4990113;28;20041;-76
2024/01/26 15:50:08;;;;;;;0.10;0.10;;;12.00;65.10;;;;;;4993529;28;20026;-76
2024/01/26 15:52:34;;;;;;;0.10;0.10;;;12.00;64.80;;;;;;4993385;28;20030;-78
2024/01/26 15:55:00;;;;;;;0.10;0.10;;;12.00;65.60;;;;;;4987626;28;20038;-76
2024/01/26 15:57:26;;;;;;;0.10;0.10;;;12.00;64.90;;;;;;4988846;28;20030;-76
2024/01/26 15:59:52;;;;;;;0.10;0.10;;;11.90;64.30;;;;;;4986315;28;20560;-76
2024/01/26 16:02:17;;;;;;;0.10;0.10;;;11.90;65.10;;;;;;4984363;28;20105;-77
2024/01/26 16:04:43;;;;;;;0.10;0.10;;;11.90;64.70;;;;;;4994733;28;20022;-77
2024/01/26 16:07:09;;;;;;;0.10;0.10;;;11.80;65.20;;;;;;4994800;28;20085;-76
2024/01/26 16:09:35;;;;;;;0.10;0.10;;;11.80;65.10;;;;;;4993136;28;20670;-78
2024/01/26 16:12:04;;;;;;;0.10;0.10;;;11.80;65.50;;;;;;4996585;28;20127;-77
2024/01/26 16:14:30;;;;;;;0.10;0.10;;;11.80;65.40;;;;;;4996731;28;20061;-77
2024/01/26 16:16:55;;;;;;;0.10;0.10;;;11.70;65.40;;;;;;4996846;28;20022;-77
2024/01/26 16:19:21;;;;;;;0.10;0.10;;;11.70;66.00;;;;;;4995842;28;20771;-77
2024/01/26 16:21:47;;;;;;;0.10;0.10;;;11.70;66.10;;;;;;4996019;28;20022;-77
2024/01/26 16:24:12;;;;;;;0.10;0.10;;;11.60;65.90;;;;;;4996213;28;20069;-77
2024/01/26 16:26:38;;;;;;;0.10;0.10;;;11.50;66.00;;;;;;4996673;28;20031;-77
2024/01/26 16:29:04;;;;;;;0.10;0.10;;;11.50;66.10;;;;;;4995261;28;20026;-77
2024/01/26 16:31:29;;;;;;;0.10;0.10;;;11.40;65.90;;;;;;4996432;28;20050;-76
2024/01/26 16:33:56;;;;;;;0.10;0.10;;;11.30;65.90;;;;;;4995725;28;20038;-76
2024/01/26 16:36:22;;;;;;;0.10;0.10;;;11.30;66.60;;;;;;4994068;28;20030;-77
2024/01/26 16:38:50;;;;;;;0.17;0.17;;;11.20;67.00;;;;;;4994176;28;20043;-76
2024/01/26 16:41:15;;;;;;;0.10;0.10;;;11.20;66.10;;;;;;4990852;28;20031;-77
2024/01/26 16:43:41;;;;;;;0.10;0.10;;;11.10;67.10;;;;;;4995748;28;20041;-75
2024/01/26 16:46:09;;;;;;;0.10;0.10;;;11.10;67.00;;;;;;4991953;28;20022;-74
2024/01/26 16:48:35;;;;;;;0.10;0.10;;;10.90;66.80;;;;;;4994476;28;20547;-78
2024/01/26 16:51:00;;;;;;;0.10;0.10;;;10.80;66.80;;;;;;4987942;28;20019;-76
2024/01/26 16:53:26;;;;;;;0.10;0.10;;;10.80;67.20;;;;;;4985496;28;20565;-75
2024/01/26 16:55:52;;;;;;;0.10;0.10;;;10.70;68.10;;;;;;4993590;28;20029;-76
2024/01/26 16:58:18;;;;;;;0.10;0.10;;;10.70;69.60;;;;;;4990161;28;20031;-74
2024/01/26 17:00:44;;;;;;;0.10;0.10;;;10.50;69.30;;;;;;4994896;28;20018;-75
2024/01/26 17:03:09;;;;;;;0.10;0.10;;;10.40;70.00;;;;;;4993318;28;20390;-76
2024/01/26 17:05:35;;;;;;;0.10;0.10;;;10.30;70.50;;;;;;4995117;28;20027;-76
2024/01/26 17:08:02;;;;;;;0.10;0.10;;;10.30;70.20;;;;;;4989527;28;20069;-75
2024/01/26 17:10:28;;;;;;;0.10;0.10;;;10.20;69.80;;;;;;4984379;28;20033;-75
2024/01/26 17:12:54;;;;;;;0.10;0.10;;;10.20;70.90;;;;;;4987644;28;20397;-76
2024/01/26 17:15:20;;;;;;;0.10;0.10;;;10.00;71.60;;;;;;4991161;28;20025;-76
2024/01/26 17:17:45;;;;;;;0.10;0.10;;;10.00;72.00;;;;;;4987539;28;20058;-75
2024/01/26 17:20:11;;;;;;;0.10;0.10;;;9.90;72.30;;;;;;4985912;28;20113;-75
2024/01/26 17:22:37;;;;;;;0.10;0.10;;;9.90;72.80;;;;;;4988000;28;20022;-75
2024/01/26 17:25:07;;;;;;;0.10;0.10;;;9.80;72.90;;;;;;4989509;28;20019;-76
2024/01/26 17:27:33;;;;;;;0.10;0.10;;;9.80;72.40;;;;;;4992274;28;20022;-77
2024/01/26 17:29:59;;;;;;;0.10;0.10;;;9.70;73.10;;;;;;4989812;28;20019;-77
2024/01/26 17:32:27;;;;;;;0.10;0.10;;;9.70;73.10;;;;;;4993748;28;20473;-76
2024/01/26 17:34:54;;;;;;;0.10;0.10;;;9.70;73.40;;;;;;4994603;28;20026;-76
2024/01/26 17:37:20;;;;;;;0.10;0.10;;;9.60;73.80;;;;;;4998144;28;20036;-75
2024/01/26 17:39:45;;;;;;;0.10;0.10;;;9.60;73.30;;;;;;4995728;28;20038;-76
2024/01/26 17:42:11;;;;;;;0.10;0.10;;;9.60;73.70;;;;;;4994363;28;20078;-76
2024/01/26 17:44:37;;;;;;;0.10;0.10;;;9.70;73.80;;;;;;4997547;28;20054;-78
2024/01/26 17:47:02;;;;;;;0.10;0.10;;;9.50;73.60;;;;;;4998154;28;20387;-80
2024/01/26 17:49:28;;;;;;;0.10;0.10;;;9.50;74.00;;;;;;4999995;28;20094;-79
2024/01/26 17:51:54;;;;;;;0.10;0.10;;;9.30;74.50;;;;;;4998065;28;20022;-79
2024/01/26 17:54:26;;;;;;;0.10;0.10;;;9.30;74.80;;;;;;4999667;28;20102;-79
2024/01/26 17:56:51;;;;;;;0.10;0.10;;;9.20;74.70;;;;;;4995160;28;20475;-79
2024/01/26 17:59:17;;;;;;;0.10;0.10;;;9.20;74.60;;;;;;4991715;28;20118;-80
2024/01/26 18:01:43;;;;;;;0.10;0.10;;;9.10;75.00;;;;;;4993090;28;20026;-77
2024/01/26 18:04:10;;;;;;;0.10;0.10;;;9.00;74.80;;;;;;4989056;28;20577;-76
2024/01/26 18:06:36;;;;;;;0.10;0.10;;;8.90;75.10;;;;;;4986245;28;20137;-78
2024/01/26 18:09:02;;;;;;;0.10;0.10;;;8.90;75.50;;;;;;4997689;28;20054;-76
2024/01/26 18:11:27;;;;;;;0.10;0.10;;;8.80;75.30;;;;;;4998940;28;20022;-77
2024/01/26 18:13:53;;;;;;;0.10;0.10;;;8.80;75.50;;;;;;4999095;28;20037;-75